createdAt,value
2023-03-06T00:01:07.627Z,6.18
2023-03-06T00:03:34.231Z,5.45
2023-03-06T00:06:01.734Z,6.15
2023-03-06T00:08:29.021Z,6.53
2023-03-06T00:10:56.294Z,6.72
2023-03-06T00:13:22.866Z,6.55
2023-03-06T00:15:49.392Z,6.07
2023-03-06T00:18:16.043Z,9.23
2023-03-06T00:20:43.880Z,7.32
2023-03-06T00:23:11.188Z,6.07
2023-03-06T00:25:38.748Z,6.65
2023-03-06T00:28:06.224Z,5.82
2023-03-06T00:30:33.036Z,7.68
2023-03-06T00:32:59.440Z,7.72
2023-03-06T00:35:25.785Z,6.15
2023-03-06T00:37:52.163Z,7.45
2023-03-06T00:40:20.251Z,8.95
2023-03-06T00:42:47.602Z,6.32
2023-03-06T00:45:14.252Z,8.00
2023-03-06T00:47:41.116Z,8.43
2023-03-06T00:50:08.562Z,7.32
2023-03-06T00:52:35.261Z,7.03
2023-03-06T00:55:01.698Z,6.97
2023-03-06T00:57:28.125Z,8.68
2023-03-06T00:59:54.451Z,6.60
2023-03-06T01:02:21.326Z,7.35
2023-03-06T01:04:47.699Z,8.50
2023-03-06T01:07:14.148Z,8.32
2023-03-06T01:09:40.687Z,7.40
2023-03-06T01:12:07.458Z,7.40
2023-03-06T01:14:33.945Z,7.72
2023-03-06T01:17:00.301Z,8.32
2023-03-06T01:19:26.655Z,6.75
2023-03-06T01:21:52.991Z,8.57
2023-03-06T01:24:19.382Z,8.65
2023-03-06T01:26:45.736Z,8.20
2023-03-06T01:29:12.084Z,7.03
2023-03-06T01:31:38.443Z,7.53
2023-03-06T01:34:04.925Z,6.53
2023-03-06T01:36:31.408Z,8.50
2023-03-06T01:38:57.869Z,8.75
2023-03-06T01:41:24.374Z,8.68
2023-03-06T01:43:51.200Z,9.93
2023-03-06T01:46:33.268Z,8.10
2023-03-06T01:49:24.095Z,9.27
2023-03-06T01:51:57.557Z,8.40
2023-03-06T01:54:28.406Z,8.70
2023-03-06T01:57:02.340Z,9.27
2023-03-06T01:59:29.181Z,7.88
2023-03-06T02:01:57.175Z,9.45
2023-03-06T02:04:24.031Z,8.45
2023-03-06T02:06:50.750Z,10.00
2023-03-06T02:09:17.082Z,8.43
2023-03-06T02:11:45.200Z,8.10
2023-03-06T02:14:15.086Z,8.50
2023-03-06T02:19:21.909Z,7.00
2023-03-06T02:21:48.258Z,8.02
2023-03-06T02:24:42.163Z,8.82
2023-03-06T02:27:10.001Z,8.02
2023-03-06T02:29:36.673Z,9.80
2023-03-06T02:32:03.700Z,9.75
2023-03-06T02:34:30.002Z,8.82
2023-03-06T02:37:06.845Z,10.43
2023-03-06T02:39:35.921Z,8.93
2023-03-06T02:42:02.276Z,10.82
2023-03-06T02:44:30.048Z,11.02
2023-03-06T02:46:56.408Z,11.38
2023-03-06T02:49:24.377Z,9.52
2023-03-06T02:51:51.809Z,10.40
2023-03-06T02:54:18.380Z,10.93
2023-03-06T02:56:45.398Z,10.18
2023-03-06T02:59:12.581Z,12.75
2023-03-06T03:01:39.208Z,10.35
2023-03-06T03:04:05.553Z,10.40
2023-03-06T03:06:31.917Z,11.77
2023-03-06T03:08:58.263Z,10.35
2023-03-06T03:11:24.610Z,10.02
2023-03-06T03:13:50.970Z,11.00
2023-03-06T03:16:17.826Z,8.90
2023-03-06T03:18:44.964Z,10.13
2023-03-06T03:21:13.258Z,10.13
2023-03-06T03:23:40.024Z,12.35
2023-03-06T03:26:08.530Z,10.73
2023-03-06T03:28:34.926Z,13.30
2023-03-06T03:31:06.372Z,10.90
2023-03-06T03:33:33.672Z,10.05
2023-03-06T03:36:01.402Z,10.25
2023-03-06T03:38:28.473Z,10.82
2023-03-06T03:40:55.300Z,11.10
2023-03-06T03:43:21.687Z,12.73
2023-03-06T03:45:48.362Z,11.40
2023-03-06T03:48:14.843Z,12.18
2023-03-06T03:50:41.193Z,10.80
2023-03-06T03:53:07.552Z,12.82
2023-03-06T03:55:33.920Z,12.05
2023-03-06T03:58:00.293Z,9.77
2023-03-06T04:00:26.653Z,10.77
2023-03-06T04:02:53.006Z,13.90
2023-03-06T04:05:19.470Z,12.57
2023-03-06T04:07:45.837Z,11.20
2023-03-06T04:10:13.389Z,12.32
2023-03-06T04:12:39.756Z,10.10
2023-03-06T04:15:06.893Z,11.75
2023-03-06T04:17:34.938Z,13.45
2023-03-06T04:20:04.457Z,12.70
2023-03-06T04:22:31.031Z,10.25
2023-03-06T04:24:57.465Z,10.25
2023-03-06T04:27:23.867Z,11.73
2023-03-06T04:29:50.258Z,12.60
2023-03-06T04:32:16.643Z,10.63
2023-03-06T04:34:43.000Z,11.50
2023-03-06T04:37:18.762Z,10.40
2023-03-06T04:39:45.140Z,10.55
2023-03-06T04:42:11.552Z,10.90
2023-03-06T04:44:37.940Z,9.50
2023-03-06T04:47:04.524Z,10.30
2023-03-06T04:49:31.189Z,11.65
2023-03-06T04:51:57.528Z,10.35
2023-03-06T04:54:24.096Z,10.95
2023-03-06T04:56:50.465Z,9.85
2023-03-06T04:59:16.994Z,11.75
2023-03-06T05:01:43.427Z,12.40
2023-03-06T05:04:09.880Z,11.93
2023-03-06T05:06:36.198Z,11.48
2023-03-06T05:09:02.629Z,11.77
2023-03-06T05:11:29.058Z,12.30
2023-03-06T05:13:55.416Z,11.07
2023-03-06T05:16:21.776Z,11.30
2023-03-06T05:18:50.521Z,10.85
2023-03-06T05:21:17.062Z,11.73
2023-03-06T05:23:43.390Z,12.40
2023-03-06T05:26:12.438Z,11.68
2023-03-06T05:28:38.972Z,10.40
2023-03-06T05:31:06.269Z,10.65
2023-03-06T05:33:33.896Z,12.02
2023-03-06T05:36:00.931Z,12.23
2023-03-06T05:38:27.768Z,14.35
2023-03-06T05:40:54.136Z,12.13
2023-03-06T05:43:20.530Z,11.90
2023-03-06T05:45:46.953Z,10.25
2023-03-06T05:48:13.759Z,9.90
2023-03-06T05:50:40.243Z,13.70
2023-03-06T05:53:07.680Z,12.57
2023-03-06T05:55:35.076Z,11.85
2023-03-06T05:58:01.547Z,12.48
2023-03-06T06:00:27.922Z,12.77
2023-03-06T06:02:54.347Z,12.85
2023-03-06T06:05:20.825Z,12.35
2023-03-06T06:07:47.241Z,12.20
2023-03-06T06:10:13.642Z,12.60
2023-03-06T06:12:40.172Z,13.07
2023-03-06T06:15:07.099Z,13.68
2023-03-06T06:17:33.448Z,13.38
2023-03-06T06:19:59.860Z,14.10
2023-03-06T06:22:26.308Z,13.15
2023-03-06T06:24:52.656Z,13.30
2023-03-06T06:27:19.005Z,12.07
2023-03-06T06:29:45.372Z,11.55
2023-03-06T06:32:12.224Z,12.05
2023-03-06T06:34:38.677Z,14.95
2023-03-06T06:37:05.335Z,13.27
2023-03-06T06:39:31.695Z,13.23
2023-03-06T06:42:20.032Z,13.27
2023-03-06T06:44:44.411Z,13.63
2023-03-06T06:47:26.378Z,13.77
2023-03-06T06:49:54.557Z,14.20
2023-03-06T06:52:21.670Z,12.60
2023-03-06T06:54:48.057Z,12.10
2023-03-06T06:57:14.876Z,12.82
2023-03-06T06:59:41.319Z,11.95
2023-03-06T07:02:07.799Z,12.55
2023-03-06T07:04:34.167Z,13.85
2023-03-06T07:07:01.122Z,14.50
2023-03-06T07:09:27.554Z,13.48
2023-03-06T07:11:53.999Z,16.02
2023-03-06T07:14:20.334Z,14.02
2023-03-06T07:16:46.677Z,12.85
2023-03-06T07:19:13.068Z,15.43
2023-03-06T07:21:39.438Z,15.63
2023-03-06T07:24:06.157Z,17.02
2023-03-06T07:26:34.587Z,14.23
2023-03-06T07:29:01.949Z,13.98
2023-03-06T07:31:28.570Z,14.95
2023-03-06T07:33:55.443Z,16.15
2023-03-06T07:36:23.635Z,13.88
2023-03-06T07:38:50.070Z,14.75
2023-03-06T07:41:17.521Z,16.10
2023-03-06T07:43:44.996Z,12.88
2023-03-06T07:46:13.038Z,16.13
2023-03-06T07:48:40.192Z,18.13
2023-03-06T07:51:10.269Z,13.55
2023-03-06T07:53:36.705Z,14.25
2023-03-06T07:56:08.831Z,13.82
2023-03-06T07:58:36.444Z,19.83
2023-03-06T08:01:04.888Z,24.25
2023-03-06T08:03:31.453Z,13.70
2023-03-06T08:06:15.266Z,14.60
2023-03-06T08:08:43.468Z,15.30
2023-03-06T08:11:11.306Z,16.02
2023-03-06T08:13:39.252Z,14.77
2023-03-06T08:16:06.304Z,15.85
2023-03-06T08:18:33.374Z,16.77
2023-03-06T08:21:09.036Z,15.70
2023-03-06T08:23:36.088Z,14.57
2023-03-06T08:26:05.522Z,15.25
2023-03-06T08:28:32.319Z,14.43
2023-03-06T08:31:07.098Z,16.10
2023-03-06T08:33:33.550Z,14.93
2023-03-06T08:36:01.397Z,22.08
2023-03-06T08:38:28.686Z,17.50
2023-03-06T08:40:55.095Z,13.40
2023-03-06T08:43:21.447Z,15.45
2023-03-06T08:45:56.576Z,14.50
2023-03-06T08:48:23.026Z,16.88
2023-03-06T08:50:49.865Z,16.98
2023-03-06T08:53:18.766Z,17.35
2023-03-06T08:55:45.635Z,19.88
2023-03-06T08:58:12.003Z,16.35
2023-03-06T09:00:38.485Z,16.52
2023-03-06T09:03:06.704Z,16.23
2023-03-06T09:05:33.557Z,16.85
2023-03-06T09:08:00.010Z,15.80
2023-03-06T09:10:27.341Z,15.88
2023-03-06T09:12:55.058Z,17.17
2023-03-06T09:15:22.871Z,15.52
2023-03-06T09:17:49.475Z,15.65
2023-03-06T09:20:16.745Z,16.42
2023-03-06T09:22:43.589Z,15.82
2023-03-06T09:25:13.082Z,16.33
2023-03-06T09:27:40.189Z,18.85
2023-03-06T09:30:07.388Z,18.08
2023-03-06T09:32:33.880Z,16.60
2023-03-06T09:35:01.123Z,17.10
2023-03-06T09:37:27.506Z,16.83
2023-03-06T09:39:53.872Z,17.17
2023-03-06T09:42:23.409Z,16.30
2023-03-06T09:44:59.138Z,16.52
2023-03-06T09:47:40.869Z,16.73
2023-03-06T09:50:19.343Z,16.58
2023-03-06T09:53:06.140Z,17.92
2023-03-06T09:55:35.615Z,15.32
2023-03-06T09:58:12.719Z,18.05
2023-03-06T10:00:55.337Z,15.93
2023-03-06T10:03:29.423Z,15.25
2023-03-06T10:06:04.741Z,15.73
2023-03-06T10:08:57.788Z,16.55
2023-03-06T10:11:37.772Z,16.38
2023-03-06T10:14:24.325Z,15.48
2023-03-06T10:16:50.894Z,17.10
2023-03-06T10:19:20.637Z,16.15
2023-03-06T10:24:35.944Z,19.00
2023-03-06T10:27:23.918Z,16.52
2023-03-06T10:30:03.235Z,20.15
2023-03-06T10:32:49.868Z,19.98
2023-03-06T10:35:23.840Z,17.38
2023-03-06T10:37:50.340Z,18.52
2023-03-06T10:40:22.643Z,18.27
2023-03-06T10:42:56.075Z,20.17
2023-03-06T10:45:29.938Z,21.02
2023-03-06T10:48:11.964Z,20.33
2023-03-06T10:50:38.447Z,22.63
2023-03-06T10:53:07.457Z,17.95
2023-03-06T10:55:35.550Z,19.13
2023-03-06T10:58:18.414Z,20.63
2023-03-06T11:00:45.448Z,19.65
2023-03-06T11:03:21.967Z,18.55
2023-03-06T11:06:03.971Z,20.63
2023-03-06T11:08:31.051Z,17.35
2023-03-06T11:11:06.824Z,20.77
2023-03-06T11:13:36.512Z,17.55
2023-03-06T11:16:06.455Z,15.95
2023-03-06T11:18:59.993Z,23.08
2023-03-06T11:21:32.622Z,20.85
2023-03-06T11:24:05.855Z,18.55
2023-03-06T11:26:52.497Z,19.70
2023-03-06T11:29:38.935Z,19.23
2023-03-06T11:32:12.358Z,20.60
2023-03-06T11:35:02.530Z,20.67
2023-03-06T11:37:42.850Z,20.55
2023-03-06T11:40:09.278Z,19.75
2023-03-06T11:42:42.585Z,20.83
2023-03-06T11:45:37.226Z,19.65
2023-03-06T11:48:15.851Z,20.92
2023-03-06T11:50:49.699Z,22.42
2023-03-06T11:53:21.222Z,23.58
2023-03-06T11:56:23.825Z,24.77
2023-03-06T11:59:18.623Z,22.50
2023-03-06T12:02:05.244Z,23.52
2023-03-06T12:04:55.033Z,21.95
2023-03-06T12:07:30.466Z,23.42
2023-03-06T12:10:23.264Z,20.77
2023-03-06T12:13:03.982Z,23.27
2023-03-06T12:15:45.335Z,23.75
2023-03-06T12:18:38.433Z,21.45
2023-03-06T12:21:41.850Z,23.20
2023-03-06T12:24:10.991Z,22.58
2023-03-06T12:26:54.531Z,21.52
2023-03-06T12:29:36.702Z,24.70
2023-03-06T12:32:14.888Z,22.02
2023-03-06T12:35:01.471Z,20.67
2023-03-06T12:37:52.300Z,21.38
2023-03-06T12:40:32.485Z,20.92
2023-03-06T12:43:18.580Z,25.42
2023-03-06T12:45:46.233Z,20.90
2023-03-06T12:48:25.433Z,20.42
2023-03-06T12:50:52.539Z,19.88
2023-03-06T12:53:28.391Z,19.02
2023-03-06T12:55:57.151Z,20.92
2023-03-06T12:58:29.836Z,19.60
2023-03-06T13:01:14.751Z,19.77
2023-03-06T13:04:17.380Z,19.17
2023-03-06T13:07:02.069Z,16.98
2023-03-06T13:09:37.425Z,18.38
2023-03-06T13:12:12.854Z,21.67
2023-03-06T13:14:42.342Z,20.40
2023-03-06T13:17:24.014Z,22.42
2023-03-06T13:20:15.463Z,19.25
2023-03-06T13:22:43.926Z,24.58
2023-03-06T13:25:19.612Z,22.83
2023-03-06T13:28:01.025Z,25.67
2023-03-06T13:30:36.664Z,23.05
2023-03-06T13:33:37.064Z,23.60
2023-03-06T13:36:24.694Z,22.27
2023-03-06T13:38:51.632Z,21.67
2023-03-06T13:41:24.828Z,23.92
2023-03-06T13:43:59.440Z,25.70
2023-03-06T13:46:34.769Z,22.77
2023-03-06T13:49:13.311Z,26.88
2023-03-06T13:52:06.139Z,26.70
2023-03-06T13:54:58.472Z,23.80
2023-03-06T13:57:27.703Z,24.63
2023-03-06T14:00:31.227Z,23.52
2023-03-06T14:03:26.346Z,21.55
2023-03-06T14:05:53.050Z,23.95
2023-03-06T14:08:22.720Z,19.85
2023-03-06T14:11:00.244Z,20.98
2023-03-06T14:13:45.264Z,22.40
2023-03-06T14:16:22.262Z,22.55
2023-03-06T14:18:51.334Z,21.33
2023-03-06T14:21:39.494Z,22.75
2023-03-06T14:24:06.062Z,21.23
2023-03-06T14:26:39.376Z,18.95
2023-03-06T14:29:25.490Z,22.38
2023-03-06T14:31:54.679Z,20.50
2023-03-06T14:34:23.894Z,21.00
2023-03-06T14:36:53.006Z,19.55
2023-03-06T14:39:29.172Z,18.55
2023-03-06T14:42:28.489Z,19.17
2023-03-06T14:45:18.570Z,19.52
2023-03-06T14:47:52.610Z,17.60
2023-03-06T14:50:30.807Z,17.95
2023-03-06T14:53:02.906Z,15.98
2023-03-06T14:55:32.160Z,15.35
2023-03-06T14:58:14.874Z,30.88
2023-03-06T15:00:44.870Z,23.67
2023-03-06T15:03:18.198Z,14.95
2023-03-06T15:05:46.969Z,15.45
2023-03-06T15:08:19.205Z,15.38
2023-03-06T15:11:03.907Z,16.35
2023-03-06T15:13:32.141Z,15.52
2023-03-06T15:16:01.157Z,14.43
2023-03-06T15:18:39.115Z,14.07
2023-03-06T15:21:08.339Z,13.60
2023-03-06T15:23:40.963Z,13.90
2023-03-06T15:26:33.157Z,14.98
2023-03-06T15:29:10.066Z,13.90
2023-03-06T15:31:39.260Z,13.18
2023-03-06T15:34:11.445Z,13.23
2023-03-06T15:36:43.369Z,12.95
2023-03-06T15:39:40.052Z,15.50
2023-03-06T15:42:19.656Z,12.38
2023-03-06T15:44:51.632Z,12.88
2023-03-06T15:47:18.043Z,13.55
2023-03-06T15:49:44.607Z,13.82
2023-03-06T15:52:11.003Z,14.15
2023-03-06T15:54:37.610Z,25.48
2023-03-06T15:57:08.068Z,28.45
2023-03-06T15:59:42.896Z,14.80
2023-03-06T16:02:16.423Z,15.75
2023-03-06T16:04:43.109Z,13.93
2023-03-06T16:07:09.564Z,11.20
2023-03-06T16:09:36.229Z,14.23
2023-03-06T16:12:03.184Z,16.15
2023-03-06T16:14:29.641Z,18.73
2023-03-06T16:16:56.941Z,17.55
2023-03-06T16:19:26.859Z,17.75
2023-03-06T16:21:55.264Z,14.68
2023-03-06T16:24:21.902Z,13.43
2023-03-06T16:26:50.968Z,13.40
2023-03-06T16:29:22.770Z,14.38
2023-03-06T16:31:49.255Z,15.27
2023-03-06T16:34:16.042Z,13.70
2023-03-06T16:36:42.540Z,13.07
2023-03-06T16:39:14.643Z,14.48
2023-03-06T16:41:41.317Z,16.70
2023-03-06T16:44:10.034Z,13.45
2023-03-06T16:46:40.694Z,18.38
2023-03-06T16:49:07.239Z,14.38
2023-03-06T16:51:33.650Z,15.43
2023-03-06T16:54:00.153Z,14.13
2023-03-06T16:56:26.628Z,13.60
2023-03-06T16:58:53.013Z,15.23
2023-03-06T17:01:20.036Z,14.82
2023-03-06T17:03:47.153Z,33.75
2023-03-06T17:06:19.112Z,17.98
2023-03-06T17:08:46.209Z,15.77
2023-03-06T17:11:13.478Z,13.85
2023-03-06T17:13:40.668Z,16.08
2023-03-06T17:16:09.641Z,17.13
2023-03-06T17:18:36.094Z,14.77
2023-03-06T17:21:02.483Z,14.63
2023-03-06T17:23:29.610Z,14.38
2023-03-06T17:26:18.697Z,12.88
2023-03-06T17:28:45.630Z,11.48
2023-03-06T17:31:23.120Z,12.93
2023-03-06T17:33:51.396Z,13.10
2023-03-06T17:36:19.196Z,13.27
2023-03-06T17:38:45.772Z,16.35
2023-03-06T17:41:13.035Z,13.85
2023-03-06T17:43:40.269Z,14.35
2023-03-06T17:46:12.150Z,19.25
2023-03-06T17:48:39.795Z,14.07
2023-03-06T17:51:06.650Z,14.60
2023-03-06T17:53:33.178Z,14.82
2023-03-06T17:55:59.629Z,14.27
2023-03-06T17:58:26.884Z,15.00
2023-03-06T18:00:53.766Z,15.18
2023-03-06T18:03:20.304Z,14.85
2023-03-06T18:05:46.725Z,99.72
2023-03-06T18:08:13.553Z,89.93
2023-03-06T18:10:41.324Z,25.90
2023-03-06T18:13:08.973Z,16.80
2023-03-06T18:15:39.434Z,17.05
2023-03-06T18:18:06.275Z,18.92
2023-03-06T18:20:32.931Z,15.75
2023-03-06T18:23:03.402Z,16.25
2023-03-06T18:25:31.727Z,15.25
2023-03-06T18:27:58.093Z,14.38
2023-03-06T18:30:24.592Z,14.77
2023-03-06T18:32:50.982Z,15.18
2023-03-06T18:35:17.478Z,14.70
2023-03-06T18:37:43.958Z,13.95
2023-03-06T18:40:11.073Z,14.38
2023-03-06T18:42:37.433Z,13.30
2023-03-06T18:45:04.259Z,18.08
2023-03-06T18:47:30.625Z,18.15
2023-03-06T18:49:57.026Z,16.75
2023-03-06T18:52:23.393Z,14.43
2023-03-06T18:54:50.459Z,15.57
2023-03-06T18:57:16.792Z,17.75
2023-03-06T18:59:43.286Z,15.95
2023-03-06T19:02:10.807Z,16.45
2023-03-06T19:04:37.805Z,20.25
2023-03-06T19:07:05.539Z,24.02
2023-03-06T19:09:31.910Z,17.00
2023-03-06T19:11:59.233Z,16.35
2023-03-06T19:14:27.881Z,16.60
2023-03-06T19:16:54.814Z,21.77
2023-03-06T19:19:26.023Z,17.13
2023-03-06T19:21:53.425Z,19.05
2023-03-06T19:24:19.800Z,18.98
2023-03-06T19:26:46.238Z,16.90
2023-03-06T19:29:12.596Z,17.75
2023-03-06T19:31:38.982Z,18.65
2023-03-06T19:34:05.350Z,16.65
2023-03-06T19:36:33.996Z,18.25
2023-03-06T19:39:03.525Z,18.65
2023-03-06T19:41:29.910Z,19.42
2023-03-06T19:43:58.835Z,19.27
2023-03-06T19:46:26.290Z,18.90
2023-03-06T19:48:58.115Z,19.00
2023-03-06T19:51:25.358Z,18.83
2023-03-06T19:53:52.368Z,18.10
2023-03-06T19:56:25.972Z,17.17
2023-03-06T19:58:52.674Z,17.98
2023-03-06T20:01:21.295Z,17.35
2023-03-06T20:03:49.304Z,17.15
2023-03-06T20:06:18.450Z,17.95
2023-03-06T20:08:46.227Z,19.50
2023-03-06T20:11:17.958Z,19.65
2023-03-06T20:13:47.395Z,20.35
2023-03-06T20:18:40.893Z,18.92
2023-03-06T20:21:07.348Z,17.65
2023-03-06T20:23:33.922Z,17.75
2023-03-06T20:26:11.917Z,16.80
2023-03-06T20:28:39.513Z,19.35
2023-03-06T20:31:13.823Z,19.38
2023-03-06T20:33:40.278Z,18.00
2023-03-06T20:36:21.274Z,18.15
2023-03-06T20:38:47.950Z,18.25
2023-03-06T20:41:19.129Z,19.70
2023-03-06T20:43:45.534Z,20.17
2023-03-06T20:46:12.684Z,19.98
2023-03-06T20:48:40.016Z,19.48
2023-03-06T20:51:13.588Z,19.58
2023-03-06T20:53:40.013Z,20.48
2023-03-06T20:56:06.675Z,21.02
2023-03-06T20:58:33.038Z,22.30
2023-03-06T21:01:02.029Z,22.27
2023-03-06T21:03:29.273Z,20.90
2023-03-06T21:05:55.733Z,20.58
2023-03-06T21:08:22.230Z,20.88
2023-03-06T21:10:48.821Z,19.63
2023-03-06T21:13:15.208Z,22.50
2023-03-06T21:15:43.386Z,21.90
2023-03-06T21:18:11.101Z,24.48
2023-03-06T21:20:38.718Z,20.75
2023-03-06T21:23:06.091Z,22.80
2023-03-06T21:25:32.584Z,20.52
2023-03-06T21:28:00.172Z,21.65
2023-03-06T21:30:27.764Z,26.73
2023-03-06T21:32:55.574Z,24.50
2023-03-06T21:35:22.263Z,22.88
2023-03-06T21:37:48.625Z,20.27
2023-03-06T21:40:15.044Z,23.42
2023-03-06T21:42:41.572Z,20.58
2023-03-06T21:45:08.793Z,22.42
2023-03-06T21:47:38.867Z,21.88
2023-03-06T21:50:07.252Z,23.00
2023-03-06T21:52:33.621Z,22.63
2023-03-06T21:55:00.127Z,23.17
2023-03-06T21:57:26.550Z,22.65
2023-03-06T21:59:52.894Z,25.58
2023-03-06T22:02:19.288Z,22.33
2023-03-06T22:04:50.098Z,22.60
2023-03-06T22:07:16.649Z,21.73
2023-03-06T22:09:43.082Z,18.73
2023-03-06T22:12:09.598Z,20.90
2023-03-06T22:14:36.018Z,19.88
2023-03-06T22:17:02.519Z,21.42
2023-03-06T22:19:28.944Z,20.13
2023-03-06T22:21:55.632Z,21.58
2023-03-06T22:24:21.980Z,20.13
2023-03-06T22:26:48.421Z,21.85
2023-03-06T22:29:14.786Z,21.80
2023-03-06T22:31:41.165Z,22.33
2023-03-06T22:34:07.695Z,24.08
2023-03-06T22:36:34.071Z,26.63
2023-03-06T22:39:02.319Z,24.27
2023-03-06T22:41:28.960Z,23.60
2023-03-06T22:44:00.029Z,23.45
2023-03-06T22:46:27.033Z,22.35
2023-03-06T22:48:55.882Z,21.13
2023-03-06T22:51:22.234Z,22.77
2023-03-06T22:53:49.279Z,21.75
2023-03-06T22:56:18.943Z,21.20
2023-03-06T22:58:46.349Z,20.58
2023-03-06T23:01:15.548Z,22.98
2023-03-06T23:03:46.939Z,21.88
2023-03-06T23:06:21.920Z,22.48
2023-03-06T23:08:50.974Z,23.33
2023-03-06T23:11:19.424Z,19.77
2023-03-06T23:13:46.557Z,22.10
2023-03-06T23:16:13.044Z,23.60
2023-03-06T23:18:39.936Z,20.38
2023-03-06T23:21:08.729Z,21.30
2023-03-06T23:23:36.299Z,21.38
2023-03-06T23:26:03.444Z,20.52
2023-03-06T23:28:30.504Z,22.60
2023-03-06T23:30:57.187Z,21.02
2023-03-06T23:33:23.815Z,20.17
2023-03-06T23:35:50.448Z,21.98
2023-03-06T23:38:16.840Z,21.48
2023-03-06T23:40:43.188Z,22.38
2023-03-06T23:43:09.857Z,24.75
2023-03-06T23:45:36.544Z,22.27
2023-03-06T23:48:04.936Z,21.92
2023-03-06T23:50:31.855Z,26.08
2023-03-06T23:52:58.271Z,21.67
2023-03-06T23:55:24.639Z,22.83
2023-03-06T23:57:50.995Z,19.90
